sensor_id;sensor_type;location;lat;lon;timestamp;pressure;altitude;pressure_sealevel;temperature;humidity
19553;BME280;9420;50.876;7.012;2023-02-17T00:01:29;101697.38;;;20.50;94.47
19553;BME280;9420;50.876;7.012;2023-02-17T00:03:57;101690.78;;;20.40;93.84
19553;BME280;9420;50.876;7.012;2023-02-17T00:06:28;101691.34;;;20.63;92.47
19553;BME280;9420;50.876;7.012;2023-02-17T00:08:57;101697.19;;;20.53;92.55
19553;BME280;9420;50.876;7.012;2023-02-17T00:11:25;101690.22;;;20.98;90.52
19553;BME280;9420;50.876;7.012;2023-02-17T00:13:53;101685.38;;;20.57;91.45
19553;BME280;9420;50.876;7.012;2023-02-17T00:16:23;101683.53;;;19.77;95.09
19553;BME280;9420;50.876;7.012;2023-02-17T00:18:54;101680.84;;;19.77;96.61
19553;BME280;9420;50.876;7.012;2023-02-17T00:21:23;101687.97;;;20.43;92.24
19553;BME280;9420;50.876;7.012;2023-02-17T00:23:52;101693.81;;;20.17;93.51
19553;BME280;9420;50.876;7.012;2023-02-17T00:26:20;101688.47;;;20.17;92.47
19553;BME280;9420;50.876;7.012;2023-02-17T00:28:48;101676.81;;;20.51;91.96
19553;BME280;9420;50.876;7.012;2023-02-17T00:31:19;101676.75;;;20.52;91.14
19553;BME280;9420;50.876;7.012;2023-02-17T00:33:48;101675.78;;;20.53;90.40
19553;BME280;9420;50.876;7.012;2023-02-17T00:36:18;101673.22;;;19.87;91.33
19553;BME280;9420;50.876;7.012;2023-02-17T00:38:46;101667.75;;;20.53;92.00
19553;BME280;9420;50.876;7.012;2023-02-17T00:41:14;101660.50;;;20.55;91.25
19553;BME280;9420;50.876;7.012;2023-02-17T00:43:41;101671.63;;;20.32;91.47
19553;BME280;9420;50.876;7.012;2023-02-17T00:46:08;101670.16;;;20.10;91.69
19553;BME280;9420;50.876;7.012;2023-02-17T00:48:35;101678.03;;;18.74;100.00
19553;BME280;9420;50.876;7.012;2023-02-17T00:51:04;101675.00;;;18.26;100.00
19553;BME280;9420;50.876;7.012;2023-02-17T00:53:31;101672.53;;;18.21;100.00
19553;BME280;9420;50.876;7.012;2023-02-17T00:55:58;101671.94;;;18.15;100.00
19553;BME280;9420;50.876;7.012;2023-02-17T00:58:25;101676.72;;;18.64;100.00
19553;BME280;9420;50.876;7.012;2023-02-17T01:00:54;101678.91;;;18.56;100.00
19553;BME280;9420;50.876;7.012;2023-02-17T01:03:22;101678.59;;;18.62;100.00
19553;BME280;9420;50.876;7.012;2023-02-17T01:05:50;101673.13;;;18.65;100.00
19553;BME280;9420;50.876;7.012;2023-02-17T01:08:18;101677.28;;;19.08;100.00
19553;BME280;9420;50.876;7.012;2023-02-17T01:10:47;101675.16;;;18.60;100.00
19553;BME280;9420;50.876;7.012;2023-02-17T01:13:16;101665.63;;;18.73;100.00
19553;BME280;9420;50.876;7.012;2023-02-17T01:15:47;101667.69;;;19.21;100.00
19553;BME280;9420;50.876;7.012;2023-02-17T01:18:16;101657.25;;;18.25;100.00
19553;BME280;9420;50.876;7.012;2023-02-17T01:20:45;101657.63;;;18.73;100.00
19553;BME280;9420;50.876;7.012;2023-02-17T01:23:13;101646.38;;;19.02;100.00
19553;BME280;9420;50.876;7.012;2023-02-17T01:25:44;101646.06;;;18.73;100.00
19553;BME280;9420;50.876;7.012;2023-02-17T01:28:16;101652.88;;;18.61;100.00
19553;BME280;9420;50.876;7.012;2023-02-17T01:30:44;101651.66;;;18.68;100.00
19553;BME280;9420;50.876;7.012;2023-02-17T01:33:11;101647.47;;;18.63;100.00
19553;BME280;9420;50.876;7.012;2023-02-17T01:35:38;101637.09;;;18.38;100.00
19553;BME280;9420;50.876;7.012;2023-02-17T01:38:05;101636.06;;;18.41;100.00
19553;BME280;9420;50.876;7.012;2023-02-17T01:40:32;101631.59;;;18.41;100.00
19553;BME280;9420;50.876;7.012;2023-02-17T01:43:01;101632.25;;;19.00;100.00
19553;BME280;9420;50.876;7.012;2023-02-17T01:45:40;101630.34;;;18.85;100.00
19553;BME280;9420;50.876;7.012;2023-02-17T01:48:15;101623.06;;;18.89;100.00
19553;BME280;9420;50.876;7.012;2023-02-17T01:50:49;101618.03;;;18.64;100.00
19553;BME280;9420;50.876;7.012;2023-02-17T01:53:21;101624.41;;;18.43;100.00
19553;BME280;9420;50.876;7.012;2023-02-17T01:55:51;101625.56;;;18.56;100.00
19553;BME280;9420;50.876;7.012;2023-02-17T01:58:22;101617.91;;;18.67;100.00
19553;BME280;9420;50.876;7.012;2023-02-17T02:00:52;101610.69;;;18.69;100.00
19553;BME280;9420;50.876;7.012;2023-02-17T02:03:23;101616.16;;;18.85;100.00
19553;BME280;9420;50.876;7.012;2023-02-17T02:05:50;101614.47;;;18.47;100.00
19553;BME280;9420;50.876;7.012;2023-02-17T02:08:17;101616.84;;;18.88;100.00
19553;BME280;9420;50.876;7.012;2023-02-17T02:10:45;101603.59;;;19.04;100.00
19553;BME280;9420;50.876;7.012;2023-02-17T02:13:12;101607.69;;;18.58;100.00
19553;BME280;9420;50.876;7.012;2023-02-17T02:15:47;101598.31;;;18.85;100.00
19553;BME280;9420;50.876;7.012;2023-02-17T02:18:32;101609.72;;;18.53;100.00
19553;BME280;9420;50.876;7.012;2023-02-17T02:21:49;101599.28;;;18.84;100.00
19553;BME280;9420;50.876;7.012;2023-02-17T02:24:41;101602.06;;;18.46;100.00
19553;BME280;9420;50.876;7.012;2023-02-17T02:30:55;101596.28;;;18.36;100.00
19553;BME280;9420;50.876;7.012;2023-02-17T02:33:35;101594.34;;;18.58;100.00
19553;BME280;9420;50.876;7.012;2023-02-17T02:36:11;101591.38;;;18.64;100.00
19553;BME280;9420;50.876;7.012;2023-02-17T02:38:46;101589.78;;;18.42;100.00
19553;BME280;9420;50.876;7.012;2023-02-17T02:41:22;101597.97;;;18.57;100.00
19553;BME280;9420;50.876;7.012;2023-02-17T02:43:51;101584.63;;;18.20;100.00
19553;BME280;9420;50.876;7.012;2023-02-17T02:46:19;101586.16;;;18.44;100.00
19553;BME280;9420;50.876;7.012;2023-02-17T02:48:48;101588.56;;;18.67;100.00
19553;BME280;9420;50.876;7.012;2023-02-17T02:51:41;101585.34;;;18.42;100.00
19553;BME280;9420;50.876;7.012;2023-02-17T02:54:24;101578.03;;;18.64;100.00
19553;BME280;9420;50.876;7.012;2023-02-17T02:57:05;101580.50;;;18.50;100.00
19553;BME280;9420;50.876;7.012;2023-02-17T02:59:47;101589.78;;;18.42;100.00
19553;BME280;9420;50.876;7.012;2023-02-17T03:02:27;101580.22;;;18.56;100.00
19553;BME280;9420;50.876;7.012;2023-02-17T03:05:08;101573.75;;;18.62;100.00
19553;BME280;9420;50.876;7.012;2023-02-17T03:07:43;101563.91;;;18.45;100.00
19553;BME280;9420;50.876;7.012;2023-02-17T03:10:12;101564.28;;;18.55;100.00
19553;BME280;9420;50.876;7.012;2023-02-17T03:12:39;101555.34;;;18.37;100.00
19553;BME280;9420;50.876;7.012;2023-02-17T03:15:16;101555.34;;;18.37;100.00
19553;BME280;9420;50.876;7.012;2023-02-17T03:17:45;101559.19;;;18.13;100.00
19553;BME280;9420;50.876;7.012;2023-02-17T03:20:14;101563.16;;;18.23;100.00
19553;BME280;9420;50.876;7.012;2023-02-17T03:22:46;101560.38;;;18.97;100.00
19553;BME280;9420;50.876;7.012;2023-02-17T03:25:14;101565.88;;;18.59;100.00
19553;BME280;9420;50.876;7.012;2023-02-17T03:27:42;101557.13;;;18.91;100.00
19553;BME280;9420;50.876;7.012;2023-02-17T03:30:10;101560.16;;;18.66;100.00
19553;BME280;9420;50.876;7.012;2023-02-17T03:32:37;101555.13;;;18.60;100.00
19553;BME280;9420;50.876;7.012;2023-02-17T03:35:05;101551.72;;;19.10;100.00
19553;BME280;9420;50.876;7.012;2023-02-17T03:37:34;101549.13;;;18.91;100.00
19553;BME280;9420;50.876;7.012;2023-02-17T03:40:01;101557.16;;;18.55;100.00
19553;BME280;9420;50.876;7.012;2023-02-17T03:42:28;101534.59;;;18.96;100.00
19553;BME280;9420;50.876;7.012;2023-02-17T03:44:55;101544.44;;;18.60;100.00
19553;BME280;9420;50.876;7.012;2023-02-17T03:47:22;101548.16;;;18.58;100.00
19553;BME280;9420;50.876;7.012;2023-02-17T03:49:50;101540.22;;;18.56;100.00
19553;BME280;9420;50.876;7.012;2023-02-17T03:52:18;101551.34;;;18.64;100.00
19553;BME280;9420;50.876;7.012;2023-02-17T03:54:46;101552.47;;;18.77;100.00
19553;BME280;9420;50.876;7.012;2023-02-17T03:57:13;101556.38;;;18.53;100.00
19553;BME280;9420;50.876;7.012;2023-02-17T03:59:40;101553.13;;;18.82;100.00
19553;BME280;9420;50.876;7.012;2023-02-17T04:02:08;101558.59;;;18.79;100.00
19553;BME280;9420;50.876;7.012;2023-02-17T04:04:35;101550.56;;;18.62;100.00
19553;BME280;9420;50.876;7.012;2023-02-17T04:07:03;101549.66;;;18.80;100.00
19553;BME280;9420;50.876;7.012;2023-02-17T04:09:31;101555.94;;;18.25;100.00
19553;BME280;9420;50.876;7.012;2023-02-17T04:11:59;101544.78;;;18.17;100.00
19553;BME280;9420;50.876;7.012;2023-02-17T04:14:26;101551.06;;;18.87;100.00
19553;BME280;9420;50.876;7.012;2023-02-17T04:16:53;101538.22;;;18.95;100.00
19553;BME280;9420;50.876;7.012;2023-02-17T04:19:20;101560.34;;;18.80;99.66
19553;BME280;9420;50.876;7.012;2023-02-17T04:21:47;101563.28;;;18.57;100.00
19553;BME280;9420;50.876;7.012;2023-02-17T04:24:14;101552.63;;;19.26;98.17
19553;BME280;9420;50.876;7.012;2023-02-17T04:26:42;101557.69;;;18.80;100.00
19553;BME280;9420;50.876;7.012;2023-02-17T04:29:10;101555.78;;;18.65;100.00
19553;BME280;9420;50.876;7.012;2023-02-17T04:31:38;101562.28;;;18.60;100.00
19553;BME280;9420;50.876;7.012;2023-02-17T04:34:07;101551.59;;;18.41;100.00
19553;BME280;9420;50.876;7.012;2023-02-17T04:36:34;101552.44;;;18.60;100.00
19553;BME280;9420;50.876;7.012;2023-02-17T04:39:01;101560.03;;;18.86;99.01
19553;BME280;9420;50.876;7.012;2023-02-17T04:41:28;101563.28;;;18.57;99.68
19553;BME280;9420;50.876;7.012;2023-02-17T04:43:57;101554.84;;;18.83;95.94
19553;BME280;9420;50.876;7.012;2023-02-17T04:46:25;101560.69;;;18.37;99.93
19553;BME280;9420;50.876;7.012;2023-02-17T04:48:52;101562.06;;;18.81;99.01
19553;BME280;9420;50.876;7.012;2023-02-17T04:51:20;101550.81;;;18.75;98.44
19553;BME280;9420;50.876;7.012;2023-02-17T04:53:48;101556.69;;;18.64;98.74
19553;BME280;9420;50.876;7.012;2023-02-17T04:56:15;101546.34;;;18.75;97.96
19553;BME280;9420;50.876;7.012;2023-02-17T04:58:42;101546.03;;;18.81;96.59
19553;BME280;9420;50.876;7.012;2023-02-17T05:01:09;101553.41;;;18.93;97.23
19553;BME280;9420;50.876;7.012;2023-02-17T05:03:37;101545.22;;;18.81;97.17
19553;BME280;9420;50.876;7.012;2023-02-17T05:06:05;101540.72;;;18.98;97.23
19553;BME280;9420;50.876;7.012;2023-02-17T05:08:33;101550.75;;;18.59;99.40
19553;BME280;9420;50.876;7.012;2023-02-17T05:11:00;101548.72;;;18.98;96.59
19553;BME280;9420;50.876;7.012;2023-02-17T05:13:27;101562.97;;;18.63;97.67
19553;BME280;9420;50.876;7.012;2023-02-17T05:15:54;101556.16;;;18.58;98.16
19553;BME280;9420;50.876;7.012;2023-02-17T05:18:21;101559.94;;;18.88;96.28
19553;BME280;9420;50.876;7.012;2023-02-17T05:20:50;101548.25;;;18.73;97.28
19553;BME280;9420;50.876;7.012;2023-02-17T05:23:17;101545.66;;;19.40;92.16
19553;BME280;9420;50.876;7.012;2023-02-17T05:25:44;101545.81;;;20.18;93.72
19553;BME280;9420;50.876;7.012;2023-02-17T05:28:11;101551.22;;;19.53;92.22
19553;BME280;9420;50.876;7.012;2023-02-17T05:30:38;101542.44;;;19.51;93.18
19553;BME280;9420;50.876;7.012;2023-02-17T05:33:05;101552.78;;;19.57;92.25
19553;BME280;9420;50.876;7.012;2023-02-17T05:35:33;101547.69;;;19.85;90.35
19553;BME280;9420;50.876;7.012;2023-02-17T05:38:02;101542.22;;;19.71;91.28
19553;BME280;9420;50.876;7.012;2023-02-17T05:40:29;101552.66;;;19.43;92.91
19553;BME280;9420;50.876;7.012;2023-02-17T05:42:56;101546.88;;;19.35;92.85
19553;BME280;9420;50.876;7.012;2023-02-17T05:45:23;101548.72;;;19.33;93.77
19553;BME280;9420;50.876;7.012;2023-02-17T05:47:50;101531.38;;;19.41;93.11
19553;BME280;9420;50.876;7.012;2023-02-17T05:50:17;101529.72;;;19.22;93.70
19553;BME280;9420;50.876;7.012;2023-02-17T05:52:45;101529.72;;;18.87;97.94
19553;BME280;9420;50.876;7.012;2023-02-17T05:55:13;101524.78;;;19.14;95.76
19553;BME280;9420;50.876;7.012;2023-02-17T05:57:41;101530.38;;;18.92;96.59
19553;BME280;9420;50.876;7.012;2023-02-17T06:00:09;101534.28;;;19.02;97.78
19553;BME280;9420;50.876;7.012;2023-02-17T06:02:37;101534.75;;;19.45;94.45
19553;BME280;9420;50.876;7.012;2023-02-17T06:05:05;101539.16;;;19.46;92.12
19553;BME280;9420;50.876;7.012;2023-02-17T06:07:32;101518.81;;;19.59;92.13
19553;BME280;9420;50.876;7.012;2023-02-17T06:09:59;101531.59;;;18.51;97.28
19553;BME280;9420;50.876;7.012;2023-02-17T06:12:27;101519.19;;;19.19;95.17
19553;BME280;9420;50.876;7.012;2023-02-17T06:14:54;101518.91;;;18.90;95.92
19553;BME280;9420;50.876;7.012;2023-02-17T06:17:21;101522.22;;;18.78;96.22
19553;BME280;9420;50.876;7.012;2023-02-17T06:19:48;101527.78;;;19.08;95.94
19553;BME280;9420;50.876;7.012;2023-02-17T06:22:16;101535.56;;;18.95;96.26
19553;BME280;9420;50.876;7.012;2023-02-17T06:24:43;101529.53;;;19.42;93.42
19553;BME280;9420;50.876;7.012;2023-02-17T06:27:10;101523.75;;;19.34;93.26
19553;BME280;9420;50.876;7.012;2023-02-17T06:29:39;101546.53;;;18.72;97.08
19553;BME280;9420;50.876;7.012;2023-02-17T06:32:06;101537.09;;;19.17;95.52
19553;BME280;9420;50.876;7.012;2023-02-17T06:34:33;101529.09;;;19.17;96.10
19553;BME280;9420;50.876;7.012;2023-02-17T06:37:00;101528.78;;;19.06;98.60
19553;BME280;9420;50.876;7.012;2023-02-17T06:39:27;101530.59;;;18.88;99.75
19553;BME280;9420;50.876;7.012;2023-02-17T06:41:54;101522.19;;;19.13;98.94
19553;BME280;9420;50.876;7.012;2023-02-17T06:44:21;101526.72;;;19.28;98.00
19553;BME280;9420;50.876;7.012;2023-02-17T06:46:49;101531.78;;;19.34;96.20
19553;BME280;9420;50.876;7.012;2023-02-17T06:49:16;101530.03;;;18.98;99.57
19553;BME280;9420;50.876;7.012;2023-02-17T06:51:44;101524.31;;;19.40;97.11
19553;BME280;9420;50.876;7.012;2023-02-17T06:54:11;101532.03;;;18.95;100.00
19553;BME280;9420;50.876;7.012;2023-02-17T06:56:38;101525.34;;;19.03;98.81
19553;BME280;9420;50.876;7.012;2023-02-17T06:59:05;101536.72;;;19.07;97.95
19553;BME280;9420;50.876;7.012;2023-02-17T07:01:32;101545.13;;;19.34;97.68
19553;BME280;9420;50.876;7.012;2023-02-17T07:04:00;101535.06;;;19.22;98.59
19553;BME280;9420;50.876;7.012;2023-02-17T07:06:27;101534.84;;;19.09;100.00
19553;BME280;9420;50.876;7.012;2023-02-17T07:08:54;101536.34;;;18.97;100.00
19553;BME280;9420;50.876;7.012;2023-02-17T07:11:22;101536.13;;;18.66;100.00
19553;BME280;9420;50.876;7.012;2023-02-17T07:13:49;101541.38;;;19.03;100.00
19553;BME280;9420;50.876;7.012;2023-02-17T07:16:16;101541.34;;;18.86;100.00
19553;BME280;9420;50.876;7.012;2023-02-17T07:18:43;101538.38;;;18.92;100.00
19553;BME280;9420;50.876;7.012;2023-02-17T07:21:11;101538.94;;;18.99;100.00
19553;BME280;9420;50.876;7.012;2023-02-17T07:23:38;101522.03;;;18.98;100.00
19553;BME280;9420;50.876;7.012;2023-02-17T07:26:08;101514.03;;;19.16;100.00
19553;BME280;9420;50.876;7.012;2023-02-17T07:28:38;101519.38;;;18.98;100.00
19553;BME280;9420;50.876;7.012;2023-02-17T07:31:07;101519.06;;;19.39;100.00
19553;BME280;9420;50.876;7.012;2023-02-17T07:33:35;101524.75;;;19.31;100.00
19553;BME280;9420;50.876;7.012;2023-02-17T07:36:05;101520.56;;;19.75;100.00
19553;BME280;9420;50.876;7.012;2023-02-17T07:38:34;101526.47;;;19.82;100.00
19553;BME280;9420;50.876;7.012;2023-02-17T07:41:06;101525.78;;;20.10;100.00
19553;BME280;9420;50.876;7.012;2023-02-17T07:43:34;101531.44;;;19.40;100.00
19553;BME280;9420;50.876;7.012;2023-02-17T07:46:02;101530.84;;;19.35;100.00
19553;BME280;9420;50.876;7.012;2023-02-17T07:48:30;101527.75;;;19.75;100.00
19553;BME280;9420;50.876;7.012;2023-02-17T07:51:04;101526.81;;;20.07;100.00
19553;BME280;9420;50.876;7.012;2023-02-17T07:53:34;101525.38;;;20.48;99.90
19553;BME280;9420;50.876;7.012;2023-02-17T07:56:02;101529.69;;;19.56;100.00
19553;BME280;9420;50.876;7.012;2023-02-17T07:58:32;101522.94;;;19.32;100.00
19553;BME280;9420;50.876;7.012;2023-02-17T08:01:05;101524.41;;;20.18;100.00
19553;BME280;9420;50.876;7.012;2023-02-17T08:03:33;101525.28;;;20.34;100.00
19553;BME280;9420;50.876;7.012;2023-02-17T08:06:00;101521.28;;;19.79;100.00
19553;BME280;9420;50.876;7.012;2023-02-17T08:08:28;101523.53;;;19.71;100.00
19553;BME280;9420;50.876;7.012;2023-02-17T08:11:15;101525.00;;;19.44;100.00
19553;BME280;9420;50.876;7.012;2023-02-17T08:14:01;101521.94;;;19.67;100.00
19553;BME280;9420;50.876;7.012;2023-02-17T08:16:28;101527.00;;;20.04;100.00
19553;BME280;9420;50.876;7.012;2023-02-17T08:18:56;101530.81;;;19.52;100.00
19553;BME280;9420;50.876;7.012;2023-02-17T08:21:25;101535.44;;;19.81;100.00
19553;BME280;9420;50.876;7.012;2023-02-17T08:23:52;101528.63;;;19.91;100.00
19553;BME280;9420;50.876;7.012;2023-02-17T08:26:22;101532.47;;;19.70;100.00
19553;BME280;9420;50.876;7.012;2023-02-17T08:28:49;101529.94;;;20.00;100.00
19553;BME280;9420;50.876;7.012;2023-02-17T08:31:16;101536.06;;;19.69;100.00
19553;BME280;9420;50.876;7.012;2023-02-17T08:33:44;101545.25;;;19.96;100.00
19553;BME280;9420;50.876;7.012;2023-02-17T08:36:12;101533.91;;;20.08;100.00
19553;BME280;9420;50.876;7.012;2023-02-17T08:38:41;101534.25;;;20.18;100.00
19553;BME280;9420;50.876;7.012;2023-02-17T08:41:19;101554.72;;;19.70;100.00
19553;BME280;9420;50.876;7.012;2023-02-17T08:43:49;101558.13;;;19.57;100.00
19553;BME280;9420;50.876;7.012;2023-02-17T08:46:17;101538.59;;;20.20;100.00
19553;BME280;9420;50.876;7.012;2023-02-17T08:48:45;101546.53;;;20.22;100.00
19553;BME280;9420;50.876;7.012;2023-02-17T08:51:15;101537.34;;;20.87;100.00
19553;BME280;9420;50.876;7.012;2023-02-17T08:53:44;101542.38;;;20.47;100.00
19553;BME280;9420;50.876;7.012;2023-02-17T08:56:11;101544.88;;;20.50;100.00
19553;BME280;9420;50.876;7.012;2023-02-17T08:58:39;101532.69;;;20.61;100.00
19553;BME280;9420;50.876;7.012;2023-02-17T09:01:08;101541.75;;;20.58;100.00
19553;BME280;9420;50.876;7.012;2023-02-17T09:03:36;101548.06;;;20.41;100.00
19553;BME280;9420;50.876;7.012;2023-02-17T09:06:06;101527.19;;;20.32;100.00
19553;BME280;9420;50.876;7.012;2023-02-17T09:08:33;101532.72;;;20.29;100.00
19553;BME280;9420;50.876;7.012;2023-02-17T09:11:02;101529.59;;;20.52;100.00
19553;BME280;9420;50.876;7.012;2023-02-17T09:13:29;101523.06;;;21.02;100.00
19553;BME280;9420;50.876;7.012;2023-02-17T09:15:57;101527.03;;;20.20;100.00
19553;BME280;9420;50.876;7.012;2023-02-17T09:18:26;101527.66;;;21.29;100.00
19553;BME280;9420;50.876;7.012;2023-02-17T09:20:53;101527.03;;;21.82;98.07
19553;BME280;9420;50.876;7.012;2023-02-17T09:23:20;101525.84;;;21.44;99.92
19553;BME280;9420;50.876;7.012;2023-02-17T09:25:47;101534.97;;;21.12;100.00
19553;BME280;9420;50.876;7.012;2023-02-17T09:28:14;101536.13;;;21.22;100.00
19553;BME280;9420;50.876;7.012;2023-02-17T09:30:41;101531.97;;;21.46;98.56
19553;BME280;9420;50.876;7.012;2023-02-17T09:33:08;101530.66;;;21.53;98.40
19553;BME280;9420;50.876;7.012;2023-02-17T09:35:38;101527.88;;;21.55;98.13
19553;BME280;9420;50.876;7.012;2023-02-17T09:38:05;101548.34;;;21.56;96.46
19553;BME280;9420;50.876;7.012;2023-02-17T09:40:42;101533.88;;;21.58;97.82
19553;BME280;9420;50.876;7.012;2023-02-17T09:43:16;101530.44;;;21.56;97.12
19553;BME280;9420;50.876;7.012;2023-02-17T09:45:51;101524.66;;;22.19;93.76
19553;BME280;9420;50.876;7.012;2023-02-17T09:48:25;101524.31;;;21.54;97.13
19553;BME280;9420;50.876;7.012;2023-02-17T09:50:59;101525.06;;;21.70;95.39
19553;BME280;9420;50.876;7.012;2023-02-17T09:53:36;101536.09;;;21.66;95.85
19553;BME280;9420;50.876;7.012;2023-02-17T09:56:11;101548.03;;;21.60;94.61
19553;BME280;9420;50.876;7.012;2023-02-17T09:58:45;101544.41;;;22.18;93.03
19553;BME280;9420;50.876;7.012;2023-02-17T10:01:19;101550.34;;;22.08;93.99
19553;BME280;9420;50.876;7.012;2023-02-17T10:03:53;101545.75;;;22.10;91.91
19553;BME280;9420;50.876;7.012;2023-02-17T10:06:28;101544.19;;;22.21;91.70
19553;BME280;9420;50.876;7.012;2023-02-17T10:09:03;101541.94;;;22.41;91.83
19553;BME280;9420;50.876;7.012;2023-02-17T10:11:37;101533.63;;;22.32;90.59
19553;BME280;9420;50.876;7.012;2023-02-17T10:14:12;101538.75;;;22.49;89.23
19553;BME280;9420;50.876;7.012;2023-02-17T10:16:50;101551.00;;;22.53;88.50
19553;BME280;9420;50.876;7.012;2023-02-17T10:19:24;101550.13;;;23.06;85.95
19553;BME280;9420;50.876;7.012;2023-02-17T10:22:05;101549.00;;;22.83;87.43
19553;BME280;9420;50.876;7.012;2023-02-17T10:24:33;101549.09;;;22.55;88.95
19553;BME280;9420;50.876;7.012;2023-02-17T10:27:19;101547.09;;;22.85;87.96
19553;BME280;9420;50.876;7.012;2023-02-17T10:30:06;101549.72;;;23.24;84.15
19553;BME280;9420;50.876;7.012;2023-02-17T10:32:50;101543.75;;;23.33;84.46
19553;BME280;9420;50.876;7.012;2023-02-17T10:35:42;101558.06;;;22.95;85.19
19553;BME280;9420;50.876;7.012;2023-02-17T10:38:18;101561.81;;;22.65;86.35
19553;BME280;9420;50.876;7.012;2023-02-17T10:40:54;101550.50;;;22.74;86.29
19553;BME280;9420;50.876;7.012;2023-02-17T10:43:27;101543.47;;;23.11;84.08
19553;BME280;9420;50.876;7.012;2023-02-17T10:45:56;101539.44;;;23.43;83.78
19553;BME280;9420;50.876;7.012;2023-02-17T10:48:33;101537.16;;;23.12;83.45
19553;BME280;9420;50.876;7.012;2023-02-17T10:51:02;101544.97;;;23.15;83.71
19553;BME280;9420;50.876;7.012;2023-02-17T10:53:37;101536.97;;;23.40;82.45
19553;BME280;9420;50.876;7.012;2023-02-17T10:56:11;101530.78;;;23.89;81.15
19553;BME280;9420;50.876;7.012;2023-02-17T10:58:50;101524.72;;;23.36;82.82
19553;BME280;9420;50.876;7.012;2023-02-17T11:01:20;101520.47;;;24.08;79.84
19553;BME280;9420;50.876;7.012;2023-02-17T11:04:00;101537.03;;;23.89;79.51
19553;BME280;9420;50.876;7.012;2023-02-17T11:06:29;101530.63;;;23.41;80.60
19553;BME280;9420;50.876;7.012;2023-02-17T11:09:03;101544.78;;;23.18;82.15
19553;BME280;9420;50.876;7.012;2023-02-17T11:11:34;101532.78;;;23.61;81.18
19553;BME280;9420;50.876;7.012;2023-02-17T11:14:12;101542.97;;;23.56;81.11
19553;BME280;9420;50.876;7.012;2023-02-17T11:16:46;101523.84;;;22.84;84.69
19553;BME280;9420;50.876;7.012;2023-02-17T11:19:23;101524.66;;;23.11;84.04
19553;BME280;9420;50.876;7.012;2023-02-17T11:21:52;101519.28;;;22.99;84.00
19553;BME280;9420;50.876;7.012;2023-02-17T11:24:22;101504.59;;;23.54;81.35
19553;BME280;9420;50.876;7.012;2023-02-17T11:26:58;101505.84;;;25.62;72.25
19553;BME280;9420;50.876;7.012;2023-02-17T11:29:27;101508.28;;;23.41;79.70
19553;BME280;9420;50.876;7.012;2023-02-17T11:31:57;101496.66;;;23.40;81.60
19553;BME280;9420;50.876;7.012;2023-02-17T11:34:28;101501.50;;;23.35;81.55
19553;BME280;9420;50.876;7.012;2023-02-17T11:37:01;101504.34;;;23.20;81.60
19553;BME280;9420;50.876;7.012;2023-02-17T11:39:37;101506.53;;;23.52;82.58
19553;BME280;9420;50.876;7.012;2023-02-17T11:42:14;101513.19;;;23.72;81.11
19553;BME280;9420;50.876;7.012;2023-02-17T11:44:42;101512.75;;;23.78;80.83
19553;BME280;9420;50.876;7.012;2023-02-17T11:47:21;101506.28;;;23.05;83.48
19553;BME280;9420;50.876;7.012;2023-02-17T11:50:10;101538.88;;;22.33;87.09
19553;BME280;9420;50.876;7.012;2023-02-17T11:53:13;101511.31;;;22.58;90.06
19553;BME280;9420;50.876;7.012;2023-02-17T11:56:07;101489.97;;;23.08;87.90
19553;BME280;9420;50.876;7.012;2023-02-17T11:59:06;101483.06;;;23.67;83.20
19553;BME280;9420;50.876;7.012;2023-02-17T12:02:00;101508.47;;;23.63;81.53
19553;BME280;9420;50.876;7.012;2023-02-17T12:04:33;101477.50;;;23.57;83.24
19553;BME280;9420;50.876;7.012;2023-02-17T12:07:39;101467.72;;;23.93;80.60
19553;BME280;9420;50.876;7.012;2023-02-17T12:10:20;101460.31;;;23.47;82.47
19553;BME280;9420;50.876;7.012;2023-02-17T12:13:12;101456.47;;;23.88;81.22
19553;BME280;9420;50.876;7.012;2023-02-17T12:15:57;101477.69;;;23.29;82.22
19553;BME280;9420;50.876;7.012;2023-02-17T12:18:45;101483.03;;;22.79;83.19
19553;BME280;9420;50.876;7.012;2023-02-17T12:21:30;101469.22;;;22.98;84.48
19553;BME280;9420;50.876;7.012;2023-02-17T12:24:35;101477.97;;;24.24;79.77
19553;BME280;9420;50.876;7.012;2023-02-17T12:27:18;101457.28;;;25.40;71.69
19553;BME280;9420;50.876;7.012;2023-02-17T12:30:11;101468.72;;;24.75;71.19
19553;BME280;9420;50.876;7.012;2023-02-17T12:32:56;101452.47;;;24.64;73.04
19553;BME280;9420;50.876;7.012;2023-02-17T12:35:39;101452.75;;;23.52;76.44
19553;BME280;9420;50.876;7.012;2023-02-17T12:38:14;101450.66;;;24.65;72.42
19553;BME280;9420;50.876;7.012;2023-02-17T12:40:49;101446.22;;;25.09;70.33
19553;BME280;9420;50.876;7.012;2023-02-17T12:43:24;101451.81;;;25.63;66.76
19553;BME280;9420;50.876;7.012;2023-02-17T12:45:58;101453.00;;;24.69;70.59
19553;BME280;9420;50.876;7.012;2023-02-17T12:48:34;101450.94;;;24.02;74.66
19553;BME280;9420;50.876;7.012;2023-02-17T12:51:10;101439.22;;;23.66;76.24
19553;BME280;9420;50.876;7.012;2023-02-17T12:53:47;101436.00;;;23.49;78.75
19553;BME280;9420;50.876;7.012;2023-02-17T12:56:56;101440.09;;;26.07;67.64
19553;BME280;9420;50.876;7.012;2023-02-17T12:59:31;101422.91;;;27.73;60.75
19553;BME280;9420;50.876;7.012;2023-02-17T13:02:04;101410.38;;;27.12;56.48
19553;BME280;9420;50.876;7.012;2023-02-17T13:04:34;101405.31;;;27.28;57.18
19553;BME280;9420;50.876;7.012;2023-02-17T13:07:32;101410.38;;;26.70;59.71
19553;BME280;9420;50.876;7.012;2023-02-17T13:10:05;101409.25;;;27.35;57.77
19553;BME280;9420;50.876;7.012;2023-02-17T13:12:38;101413.47;;;27.68;55.44
19553;BME280;9420;50.876;7.012;2023-02-17T13:15:30;101416.94;;;24.48;67.06
19553;BME280;9420;50.876;7.012;2023-02-17T13:18:01;101425.81;;;23.78;70.78
19553;BME280;9420;50.876;7.012;2023-02-17T13:20:54;101418.06;;;24.57;69.41
19553;BME280;9420;50.876;7.012;2023-02-17T13:23:36;101433.78;;;24.39;70.39